Terminal Aerodrome Forecast
Issued by NWS

Home | Current Version | Previous Version | Text Only | Print | Product List | Glossary On
Versions: 1 2 3 4 5 6 7 8 9 10 11 12 13 14 15 16 17 18 19 20 21 22 23 24 25
000
FTUS46 KLOX 301740
TAFBUR
TAF
KBUR 301740Z 3018/3118 00000KT P6SM BKN021
     FM301900 17010KT P6SM SCT025
     FM310300 VRB03KT P6SM SKC
     FM311000 VRB05KT 3SM BR BKN005=

USA.gov is the U.S. government's official web portal to all federal, state and local government web resources and services.